To NAV CANADA Home Page Login to a new session Search on AWWS site Feedback and Comments Disclaimer Vers la page française équivalente Tips FAQ What's new on the site To the Forecasts and Observations / NOTAM section To "File a Flight Plan" website Publications and other links Update of the User's profile FIC Telephone Numbers My Weather Data Folder Route Weather Data Regional Weather Data Local Weather Data To the Forecasts and Observations / NOTAM section
Request Generated 01/17/2017 at 04:56:10 UTC . Weather information available at that time is displayed.

METAR/TAF

TORONTO/LESTER B. PEARSON INTL/ON    

METAR CYYZ 170400Z 00000KT 15SM BKN110 01/M06 A3021 RMK AC7 SLP239=
METAR CYYZ 170300Z 25002KT 15SM BKN110 M00/M07 A3023 RMK AC7 SLP245=
METAR CYYZ 170200Z 00000KT 15SM SCT110 BKN170 BKN200 00/M06 A3023 RMK
AC3AC2CI2 SLP248=

TAF CYYZ 170238Z 1703/1806 VRB03KT P6SM SCT100 BKN150
FM170600 VRB03KT P6SM OVC050
FM170900 05005KT P6SM OVC040 PROB40 1709/1712 5SM -FZRA BR
FM171200 06008KT 5SM -FZRA BR FEW008 OVC030
FM171500 09013G23KT 4SM -RA BR SCT008 OVC015
FM171800 09013G23KT 2SM -RA BR OVC008
FM172000 08012KT 3/4SM -RA -DZ BR OVC003
FM172300 03008KT 1/2SM -DZ FG OVC004
BECMG 1804/1806 34005KT
RMK NXT FCST BY 170600Z=
Your time UTC time
Weather data provided by Environment Canada and NAV CANADA